sensor_id;sensor_type;location;lat;lon;timestamp;pressure;altitude;pressure_sealevel;temperature;humidity
59419;BME280;45224;50.904;6.038;2023-03-02T00:00:00;100448.31;;;-0.41;70.85
59419;BME280;45224;50.904;6.038;2023-03-02T00:01:49;100450.06;;;-0.40;70.67
59419;BME280;45224;50.904;6.038;2023-03-02T00:03:20;100456.63;;;-0.29;70.48
59419;BME280;45224;50.904;6.038;2023-03-02T00:04:57;100446.81;;;-0.38;71.08
59419;BME280;45224;50.904;6.038;2023-03-02T00:06:28;100454.06;;;-0.29;70.91
59419;BME280;45224;50.904;6.038;2023-03-02T00:08:01;100462.94;;;-0.37;71.10
59419;BME280;45224;50.904;6.038;2023-03-02T00:09:32;100457.13;;;-0.34;71.57
59419;BME280;45224;50.904;6.038;2023-03-02T00:11:03;100455.41;;;-0.35;71.41
59419;BME280;45224;50.904;6.038;2023-03-02T00:12:34;100454.63;;;-0.49;71.72
59419;BME280;45224;50.904;6.038;2023-03-02T00:14:05;100453.78;;;-0.50;71.98
59419;BME280;45224;50.904;6.038;2023-03-02T00:15:36;100452.63;;;-0.40;71.49
59419;BME280;45224;50.904;6.038;2023-03-02T00:17:07;100450.50;;;-0.47;71.50
59419;BME280;45224;50.904;6.038;2023-03-02T00:18:37;100455.50;;;-0.49;72.17
59419;BME280;45224;50.904;6.038;2023-03-02T00:20:08;100452.72;;;-0.53;72.27
59419;BME280;45224;50.904;6.038;2023-03-02T00:21:42;100452.63;;;-0.40;71.90
59419;BME280;45224;50.904;6.038;2023-03-02T00:23:14;100459.16;;;-0.44;72.18
59419;BME280;45224;50.904;6.038;2023-03-02T00:24:44;100463.38;;;-0.44;71.92
59419;BME280;45224;50.904;6.038;2023-03-02T00:26:15;100451.63;;;-0.42;71.88
59419;BME280;45224;50.904;6.038;2023-03-02T00:27:45;100450.84;;;-0.41;72.01
59419;BME280;45224;50.904;6.038;2023-03-02T00:29:16;100462.44;;;-0.46;72.00
59419;BME280;45224;50.904;6.038;2023-03-02T00:30:46;100460.22;;;-0.40;71.92
59419;BME280;45224;50.904;6.038;2023-03-02T00:32:18;100462.94;;;-0.37;72.06
59419;BME280;45224;50.904;6.038;2023-03-02T00:33:51;100454.50;;;-0.36;71.97
59419;BME280;45224;50.904;6.038;2023-03-02T00:35:23;100458.72;;;-0.37;71.97
59419;BME280;45224;50.904;6.038;2023-03-02T00:36:56;100447.97;;;-0.47;72.72
59419;BME280;45224;50.904;6.038;2023-03-02T00:38:27;100457.22;;;-0.33;72.42
59419;BME280;45224;50.904;6.038;2023-03-02T00:39:57;100455.41;;;-0.50;72.96
59419;BME280;45224;50.904;6.038;2023-03-02T00:41:28;100456.31;;;-0.50;73.15
59419;BME280;45224;50.904;6.038;2023-03-02T00:42:59;100462.09;;;-0.52;73.04
59419;BME280;45224;50.904;6.038;2023-03-02T00:44:29;100461.19;;;-0.38;72.91
59419;BME280;45224;50.904;6.038;2023-03-02T00:46:08;100459.06;;;-0.45;73.04
59419;BME280;45224;50.904;6.038;2023-03-02T00:47:39;100459.16;;;-0.44;73.04
59419;BME280;45224;50.904;6.038;2023-03-02T00:49:12;100458.81;;;-0.35;72.60
59419;BME280;45224;50.904;6.038;2023-03-02T00:50:43;100463.25;;;-0.31;72.67
59419;BME280;45224;50.904;6.038;2023-03-02T00:52:14;100461.53;;;-0.32;72.80
59419;BME280;45224;50.904;6.038;2023-03-02T00:53:45;100465.97;;;-0.28;72.53
59419;BME280;45224;50.904;6.038;2023-03-02T00:55:15;100463.97;;;-0.33;72.50
59419;BME280;45224;50.904;6.038;2023-03-02T00:56:46;100460.16;;;-0.42;73.12
59419;BME280;45224;50.904;6.038;2023-03-02T00:58:17;100454.34;;;-0.39;73.35
59419;BME280;45224;50.904;6.038;2023-03-02T00:59:47;100461.53;;;-0.32;73.04
59419;BME280;45224;50.904;6.038;2023-03-02T01:01:27;100462.66;;;-0.27;72.81
59419;BME280;45224;50.904;6.038;2023-03-02T01:02:57;100454.84;;;-0.30;73.19
59419;BME280;45224;50.904;6.038;2023-03-02T01:04:34;100449.25;;;-0.24;72.80
59419;BME280;45224;50.904;6.038;2023-03-02T01:06:12;100447.56;;;-0.24;72.85
59419;BME280;45224;50.904;6.038;2023-03-02T01:07:44;100446.44;;;-0.29;73.61
59419;BME280;45224;50.904;6.038;2023-03-02T01:09:15;100446.75;;;-0.23;72.69
59419;BME280;45224;50.904;6.038;2023-03-02T01:10:45;100451.38;;;-0.15;72.85
59419;BME280;45224;50.904;6.038;2023-03-02T01:12:16;100440.09;;;-0.21;72.94
59419;BME280;45224;50.904;6.038;2023-03-02T01:13:48;100445.84;;;-0.40;73.72
59419;BME280;45224;50.904;6.038;2023-03-02T01:15:19;100448.47;;;-0.38;73.91
59419;BME280;45224;50.904;6.038;2023-03-02T01:16:50;100447.53;;;-0.40;74.49
59419;BME280;45224;50.904;6.038;2023-03-02T01:18:20;100447.41;;;-0.27;73.47
59419;BME280;45224;50.904;6.038;2023-03-02T01:19:51;100437.53;;;-0.37;74.00
59419;BME280;45224;50.904;6.038;2023-03-02T01:21:23;100440.38;;;-0.31;73.64
59419;BME280;45224;50.904;6.038;2023-03-02T01:22:54;100435.38;;;-0.29;74.17
59419;BME280;45224;50.904;6.038;2023-03-02T01:24:25;100429.78;;;-0.24;73.00
59419;BME280;45224;50.904;6.038;2023-03-02T01:25:56;100438.19;;;-0.25;73.47
59419;BME280;45224;50.904;6.038;2023-03-02T01:27:27;100427.81;;;-0.13;73.00
59419;BME280;45224;50.904;6.038;2023-03-02T01:28:57;100428.28;;;-0.04;71.96
59419;BME280;45224;50.904;6.038;2023-03-02T01:30:28;100420.97;;;0.03;71.67
59419;BME280;45224;50.904;6.038;2023-03-02T01:31:58;100433.31;;;0.11;71.50
59419;BME280;45224;50.904;6.038;2023-03-02T01:33:30;100420.28;;;0.22;70.34
59419;BME280;45224;50.904;6.038;2023-03-02T01:35:00;100418.84;;;0.27;70.22
59419;BME280;45224;50.904;6.038;2023-03-02T01:36:31;100420.59;;;0.28;70.21
59419;BME280;45224;50.904;6.038;2023-03-02T01:38:02;100420.97;;;0.35;69.35
59419;BME280;45224;50.904;6.038;2023-03-02T01:39:32;100417.31;;;0.30;69.82
59419;BME280;45224;50.904;6.038;2023-03-02T01:41:03;100415.56;;;0.13;70.36
59419;BME280;45224;50.904;6.038;2023-03-02T01:42:38;100410.56;;;0.14;70.56
59419;BME280;45224;50.904;6.038;2023-03-02T01:44:38;100409.63;;;0.12;70.60
59419;BME280;45224;50.904;6.038;2023-03-02T01:46:35;100407.72;;;0.08;71.17
59419;BME280;45224;50.904;6.038;2023-03-02T01:48:09;100403.00;;;0.16;70.46
59419;BME280;45224;50.904;6.038;2023-03-02T01:49:43;100399.44;;;0.12;70.25
59419;BME280;45224;50.904;6.038;2023-03-02T01:51:20;100400.25;;;0.11;70.59
59419;BME280;45224;50.904;6.038;2023-03-02T01:52:52;100400.09;;;0.25;69.86
59419;BME280;45224;50.904;6.038;2023-03-02T01:54:24;100405.00;;;0.38;69.16
59419;BME280;45224;50.904;6.038;2023-03-02T01:56:02;100399.13;;;0.39;68.94
59419;BME280;45224;50.904;6.038;2023-03-02T01:57:35;100397.22;;;0.18;69.97
59419;BME280;45224;50.904;6.038;2023-03-02T01:59:15;100401.44;;;0.34;69.11
59419;BME280;45224;50.904;6.038;2023-03-02T02:00:47;100396.56;;;0.39;68.87
59419;BME280;45224;50.904;6.038;2023-03-02T02:02:18;100387.34;;;0.41;68.06
59419;BME280;45224;50.904;6.038;2023-03-02T02:03:49;100402.09;;;0.48;68.40
59419;BME280;45224;50.904;6.038;2023-03-02T02:05:23;100391.56;;;0.41;68.73
59419;BME280;45224;50.904;6.038;2023-03-02T02:06:58;100392.28;;;0.38;69.16
59419;BME280;45224;50.904;6.038;2023-03-02T02:08:31;100389.09;;;0.42;68.71
59419;BME280;45224;50.904;6.038;2023-03-02T02:10:02;100387.09;;;0.36;68.90
59419;BME280;45224;50.904;6.038;2023-03-02T02:11:33;100389.28;;;0.12;70.28
59419;BME280;45224;50.904;6.038;2023-03-02T02:13:07;100385.06;;;-0.04;71.04
59419;BME280;45224;50.904;6.038;2023-03-02T02:14:39;100388.94;;;-0.27;71.78
59419;BME280;45224;50.904;6.038;2023-03-02T02:16:10;100379.09;;;-0.21;72.13
59419;BME280;45224;50.904;6.038;2023-03-02T02:17:41;100376.84;;;-0.31;72.33
59419;BME280;45224;50.904;6.038;2023-03-02T02:21:00;100388.00;;;-0.29;72.63
59419;BME280;45224;50.904;6.038;2023-03-02T02:24:40;100387.91;;;-0.47;73.98
59419;BME280;45224;50.904;6.038;2023-03-02T02:26:25;100382.22;;;-0.58;74.77
59419;BME280;45224;50.904;6.038;2023-03-02T02:27:57;100380.19;;;-0.48;74.44
59419;BME280;45224;50.904;6.038;2023-03-02T02:29:36;100377.50;;;-0.66;75.22
59419;BME280;45224;50.904;6.038;2023-03-02T02:32:44;100379.03;;;-0.53;74.68
59419;BME280;45224;50.904;6.038;2023-03-02T02:34:19;100376.28;;;-0.58;74.73
59419;BME280;45224;50.904;6.038;2023-03-02T02:36:02;100374.28;;;-0.47;73.83
59419;BME280;45224;50.904;6.038;2023-03-02T02:37:41;100376.69;;;-0.34;73.47
59419;BME280;45224;50.904;6.038;2023-03-02T02:39:18;100373.88;;;-0.24;72.38
59419;BME280;45224;50.904;6.038;2023-03-02T02:40:52;100376.91;;;-0.14;71.97
59419;BME280;45224;50.904;6.038;2023-03-02T02:42:31;100374.66;;;-0.08;71.34
59419;BME280;45224;50.904;6.038;2023-03-02T02:44:04;100371.41;;;-0.06;71.26
59419;BME280;45224;50.904;6.038;2023-03-02T02:45:36;100370.66;;;-0.20;72.26
59419;BME280;45224;50.904;6.038;2023-03-02T02:47:18;100374.72;;;-0.23;72.79
59419;BME280;45224;50.904;6.038;2023-03-02T02:48:51;100375.13;;;-0.32;72.98
59419;BME280;45224;50.904;6.038;2023-03-02T02:50:33;100363.38;;;-0.30;72.98
59419;BME280;45224;50.904;6.038;2023-03-02T02:52:05;100363.03;;;-0.20;72.64
59419;BME280;45224;50.904;6.038;2023-03-02T02:53:58;100367.78;;;-0.42;73.71
59419;BME280;45224;50.904;6.038;2023-03-02T02:55:32;100367.16;;;-0.54;74.42
59419;BME280;45224;50.904;6.038;2023-03-02T02:57:04;100368.25;;;-0.66;75.70
59419;BME280;45224;50.904;6.038;2023-03-02T02:58:46;100367.22;;;-0.84;76.22
59419;BME280;45224;50.904;6.038;2023-03-02T03:00:19;100379.25;;;-0.97;76.71
59419;BME280;45224;50.904;6.038;2023-03-02T03:01:51;100373.38;;;-0.96;77.58
59419;BME280;45224;50.904;6.038;2023-03-02T03:03:31;100375.47;;;-0.88;77.28
59419;BME280;45224;50.904;6.038;2023-03-02T03:05:05;100376.44;;;-0.86;76.77
59419;BME280;45224;50.904;6.038;2023-03-02T03:06:51;100379.66;;;-0.89;76.87
59419;BME280;45224;50.904;6.038;2023-03-02T03:09:00;100376.38;;;-1.03;77.68
59419;BME280;45224;50.904;6.038;2023-03-02T03:10:39;100357.13;;;-1.14;78.09
59419;BME280;45224;50.904;6.038;2023-03-02T03:12:17;100371.63;;;-0.97;78.05
59419;BME280;45224;50.904;6.038;2023-03-02T03:14:13;100364.09;;;-1.10;78.04
59419;BME280;45224;50.904;6.038;2023-03-02T03:15:43;100358.13;;;-0.96;77.48
59419;BME280;45224;50.904;6.038;2023-03-02T03:17:13;100363.72;;;-0.86;76.77
59419;BME280;45224;50.904;6.038;2023-03-02T03:18:52;100366.47;;;-0.98;77.14
59419;BME280;45224;50.904;6.038;2023-03-02T03:20:25;100366.56;;;-0.97;77.56
59419;BME280;45224;50.904;6.038;2023-03-02T03:21:59;100362.53;;;-0.93;77.35
59419;BME280;45224;50.904;6.038;2023-03-02T03:23:33;100361.41;;;-0.98;77.35
59419;BME280;45224;50.904;6.038;2023-03-02T03:25:07;100373.53;;;-0.93;77.15
59419;BME280;45224;50.904;6.038;2023-03-02T03:26:39;100360.75;;;-0.94;76.93
59419;BME280;45224;50.904;6.038;2023-03-02T03:28:09;100352.88;;;-0.84;76.59
59419;BME280;45224;50.904;6.038;2023-03-02T03:29:44;100353.31;;;-0.91;76.51
59419;BME280;45224;50.904;6.038;2023-03-02T03:31:18;100360.41;;;-0.85;76.57
59419;BME280;45224;50.904;6.038;2023-03-02T03:32:49;100364.84;;;-0.81;76.81
59419;BME280;45224;50.904;6.038;2023-03-02T03:34:20;100355.97;;;-0.73;76.01
59419;BME280;45224;50.904;6.038;2023-03-02T03:35:51;100355.97;;;-0.73;75.88
59419;BME280;45224;50.904;6.038;2023-03-02T03:37:23;100350.78;;;-0.91;76.80
59419;BME280;45224;50.904;6.038;2023-03-02T03:38:54;100349.78;;;-0.78;76.33
59419;BME280;45224;50.904;6.038;2023-03-02T03:40:25;100360.88;;;-0.76;76.36
59419;BME280;45224;50.904;6.038;2023-03-02T03:41:56;100364.69;;;-0.84;76.92
59419;BME280;45224;50.904;6.038;2023-03-02T03:43:27;100363.03;;;-0.84;77.13
59419;BME280;45224;50.904;6.038;2023-03-02T03:44:58;100358.78;;;-1.00;77.41
59419;BME280;45224;50.904;6.038;2023-03-02T03:46:29;100359.66;;;-1.14;78.60
59419;BME280;45224;50.904;6.038;2023-03-02T03:48:00;100359.44;;;-1.34;79.17
59419;BME280;45224;50.904;6.038;2023-03-02T03:49:31;100354.53;;;-1.31;79.24
59419;BME280;45224;50.904;6.038;2023-03-02T03:51:01;100357.13;;;-1.44;79.95
59419;BME280;45224;50.904;6.038;2023-03-02T03:52:32;100358.53;;;-1.49;80.45
59419;BME280;45224;50.904;6.038;2023-03-02T03:54:12;100347.94;;;-1.57;80.54
59419;BME280;45224;50.904;6.038;2023-03-02T03:55:44;100353.19;;;-1.69;80.31
59419;BME280;45224;50.904;6.038;2023-03-02T03:57:15;100352.59;;;-1.64;80.94
59419;BME280;45224;50.904;6.038;2023-03-02T03:58:46;100350.38;;;-1.58;80.32
59419;BME280;45224;50.904;6.038;2023-03-02T04:00:17;100360.72;;;-1.55;80.26
59419;BME280;45224;50.904;6.038;2023-03-02T04:01:56;100353.09;;;-1.55;80.12
59419;BME280;45224;50.904;6.038;2023-03-02T04:03:30;100355.81;;;-1.67;79.60
59419;BME280;45224;50.904;6.038;2023-03-02T04:05:02;100353.63;;;-1.46;79.66
59419;BME280;45224;50.904;6.038;2023-03-02T04:06:36;100354.00;;;-1.40;79.33
59419;BME280;45224;50.904;6.038;2023-03-02T04:08:07;100350.50;;;-1.27;78.00
59419;BME280;45224;50.904;6.038;2023-03-02T04:09:38;100351.00;;;-1.33;78.93
59419;BME280;45224;50.904;6.038;2023-03-02T04:11:11;100357.84;;;-1.32;78.66
59419;BME280;45224;50.904;6.038;2023-03-02T04:12:41;100354.34;;;-1.34;78.38
59419;BME280;45224;50.904;6.038;2023-03-02T04:14:14;100353.47;;;-1.19;78.05
59419;BME280;45224;50.904;6.038;2023-03-02T04:15:45;100353.78;;;-1.13;77.65
59419;BME280;45224;50.904;6.038;2023-03-02T04:17:16;100351.59;;;-1.07;76.93
59419;BME280;45224;50.904;6.038;2023-03-02T04:18:49;100349.41;;;-1.01;76.78
59419;BME280;45224;50.904;6.038;2023-03-02T04:20:21;100356.59;;;-0.94;76.69
59419;BME280;45224;50.904;6.038;2023-03-02T04:21:54;100351.34;;;-0.97;76.42
59419;BME280;45224;50.904;6.038;2023-03-02T04:23:27;100355.34;;;-1.00;76.63
59419;BME280;45224;50.904;6.038;2023-03-02T04:24:57;100355.88;;;-1.06;76.67
59419;BME280;45224;50.904;6.038;2023-03-02T04:26:28;100353.97;;;-1.10;77.19
59419;BME280;45224;50.904;6.038;2023-03-02T04:27:59;100345.84;;;-1.19;77.77
59419;BME280;45224;50.904;6.038;2023-03-02T04:29:33;100358.53;;;-1.19;78.16
59419;BME280;45224;50.904;6.038;2023-03-02T04:31:06;100352.59;;;-1.35;78.23
59419;BME280;45224;50.904;6.038;2023-03-02T04:32:36;100353.47;;;-1.49;79.20
59419;BME280;45224;50.904;6.038;2023-03-02T04:34:07;100346.56;;;-1.37;78.89
59419;BME280;45224;50.904;6.038;2023-03-02T04:35:40;100349.44;;;-1.31;78.43
59419;BME280;45224;50.904;6.038;2023-03-02T04:37:10;100344.69;;;-1.24;78.12
59419;BME280;45224;50.904;6.038;2023-03-02T04:38:42;100349.63;;;-1.27;78.07
59419;BME280;45224;50.904;6.038;2023-03-02T04:40:14;100350.13;;;-1.33;78.48
59419;BME280;45224;50.904;6.038;2023-03-02T04:41:45;100348.03;;;-1.25;78.43
59419;BME280;45224;50.904;6.038;2023-03-02T04:43:16;100348.38;;;-1.49;78.96
59419;BME280;45224;50.904;6.038;2023-03-02T04:44:47;100346.81;;;-1.47;79.31
59419;BME280;45224;50.904;6.038;2023-03-02T04:46:22;100349.78;;;-1.54;79.74
59419;BME280;45224;50.904;6.038;2023-03-02T04:47:52;100347.34;;;-1.68;80.35
59419;BME280;45224;50.904;6.038;2023-03-02T04:49:23;100354.94;;;-1.68;80.41
59419;BME280;45224;50.904;6.038;2023-03-02T04:50:53;100345.75;;;-1.66;80.20
59419;BME280;45224;50.904;6.038;2023-03-02T04:52:24;100352.22;;;-1.71;80.38
59419;BME280;45224;50.904;6.038;2023-03-02T04:53:57;100354.16;;;-1.67;80.72
59419;BME280;45224;50.904;6.038;2023-03-02T04:55:28;100352.94;;;-1.58;80.29
59419;BME280;45224;50.904;6.038;2023-03-02T04:56:59;100352.75;;;-1.76;80.48
59419;BME280;45224;50.904;6.038;2023-03-02T04:58:29;100349.97;;;-1.66;80.80
59419;BME280;45224;50.904;6.038;2023-03-02T05:00:00;100349.69;;;-1.71;81.14
59419;BME280;45224;50.904;6.038;2023-03-02T05:01:30;100356.13;;;-1.91;81.34
59419;BME280;45224;50.904;6.038;2023-03-02T05:03:02;100349.94;;;-1.81;81.38
59419;BME280;45224;50.904;6.038;2023-03-02T05:04:33;100346.44;;;-1.83;81.72
59419;BME280;45224;50.904;6.038;2023-03-02T05:06:04;100355.44;;;-1.88;81.76
59419;BME280;45224;50.904;6.038;2023-03-02T05:07:34;100352.53;;;-1.94;81.86
59419;BME280;45224;50.904;6.038;2023-03-02T05:09:06;100354.66;;;-1.87;81.90
59419;BME280;45224;50.904;6.038;2023-03-02T05:10:37;100360.06;;;-1.81;81.84
59419;BME280;45224;50.904;6.038;2023-03-02T05:12:07;100361.84;;;-1.80;81.60
59419;BME280;45224;50.904;6.038;2023-03-02T05:13:38;100362.97;;;-1.75;81.31
59419;BME280;45224;50.904;6.038;2023-03-02T05:15:08;100368.28;;;-1.85;81.46
59419;BME280;45224;50.904;6.038;2023-03-02T05:16:40;100367.75;;;-1.79;81.55
59419;BME280;45224;50.904;6.038;2023-03-02T05:18:11;100367.44;;;-1.86;81.16
59419;BME280;45224;50.904;6.038;2023-03-02T05:19:41;100363.78;;;-1.76;81.53
59419;BME280;45224;50.904;6.038;2023-03-02T05:21:12;100363.81;;;-1.89;81.10
59419;BME280;45224;50.904;6.038;2023-03-02T05:22:44;100367.38;;;-2.00;82.40
59419;BME280;45224;50.904;6.038;2023-03-02T05:24:14;100357.44;;;-1.97;82.79
59419;BME280;45224;50.904;6.038;2023-03-02T05:25:45;100363.88;;;-2.03;82.66
59419;BME280;45224;50.904;6.038;2023-03-02T05:27:15;100362.50;;;-1.97;82.48
59419;BME280;45224;50.904;6.038;2023-03-02T05:28:46;100367.03;;;-2.07;82.67
59419;BME280;45224;50.904;6.038;2023-03-02T05:30:16;100363.50;;;-2.09;83.23
59419;BME280;45224;50.904;6.038;2023-03-02T05:31:48;100365.66;;;-2.02;82.09
59419;BME280;45224;50.904;6.038;2023-03-02T05:33:19;100363.31;;;-2.12;83.13
59419;BME280;45224;50.904;6.038;2023-03-02T05:34:49;100359.84;;;-2.14;82.91
59419;BME280;45224;50.904;6.038;2023-03-02T05:36:20;100354.78;;;-2.14;83.29
59419;BME280;45224;50.904;6.038;2023-03-02T05:37:51;100357.41;;;-2.12;83.09
59419;BME280;45224;50.904;6.038;2023-03-02T05:39:21;100351.47;;;-2.13;83.41
59419;BME280;45224;50.904;6.038;2023-03-02T05:40:52;100349.03;;;-2.25;83.60
59419;BME280;45224;50.904;6.038;2023-03-02T05:42:23;100364.56;;;-2.05;83.33
59419;BME280;45224;50.904;6.038;2023-03-02T05:43:54;100361.97;;;-2.07;82.77
59419;BME280;45224;50.904;6.038;2023-03-02T05:45:30;100364.06;;;-1.99;82.99
59419;BME280;45224;50.904;6.038;2023-03-02T05:47:01;100358.81;;;-2.03;82.54
59419;BME280;45224;50.904;6.038;2023-03-02T05:48:32;100357.44;;;-1.97;82.32
59419;BME280;45224;50.904;6.038;2023-03-02T05:50:02;100363.69;;;-2.06;82.31
59419;BME280;45224;50.904;6.038;2023-03-02T05:51:33;100368.41;;;-2.12;82.81
59419;BME280;45224;50.904;6.038;2023-03-02T05:53:04;100367.34;;;-2.15;83.30
59419;BME280;45224;50.904;6.038;2023-03-02T05:54:34;100368.22;;;-2.15;83.72
59419;BME280;45224;50.904;6.038;2023-03-02T05:56:05;100370.16;;;-2.11;83.68
59419;BME280;45224;50.904;6.038;2023-03-02T05:57:37;100373.47;;;-2.12;83.07
59419;BME280;45224;50.904;6.038;2023-03-02T05:59:07;100373.38;;;-2.13;82.86
59419;BME280;45224;50.904;6.038;2023-03-02T06:00:38;100371.72;;;-2.13;82.62
59419;BME280;45224;50.904;6.038;2023-03-02T06:02:08;100372.09;;;-2.07;82.91
59419;BME280;45224;50.904;6.038;2023-03-02T06:03:39;100371.53;;;-2.16;83.12
59419;BME280;45224;50.904;6.038;2023-03-02T06:05:12;100366.44;;;-2.31;83.53
59419;BME280;45224;50.904;6.038;2023-03-02T06:06:42;100376.22;;;-2.22;83.11
59419;BME280;45224;50.904;6.038;2023-03-02T06:08:13;100371.84;;;-2.25;83.17
59419;BME280;45224;50.904;6.038;2023-03-02T06:09:43;100384.41;;;-2.13;82.51
59419;BME280;45224;50.904;6.038;2023-03-02T06:11:14;100371.72;;;-2.13;82.46
59419;BME280;45224;50.904;6.038;2023-03-02T06:12:45;100372.13;;;-2.20;82.92
59419;BME280;45224;50.904;6.038;2023-03-02T06:14:15;100370.97;;;-2.25;83.24
59419;BME280;45224;50.904;6.038;2023-03-02T06:15:46;100371.66;;;-2.28;83.60
59419;BME280;45224;50.904;6.038;2023-03-02T06:17:16;100371.50;;;-2.31;83.06
59419;BME280;45224;50.904;6.038;2023-03-02T06:18:47;100367.31;;;-2.30;83.26
59419;BME280;45224;50.904;6.038;2023-03-02T06:20:17;100366.47;;;-2.16;83.08
59419;BME280;45224;50.904;6.038;2023-03-02T06:21:48;100366.84;;;-2.10;81.97
59419;BME280;45224;50.904;6.038;2023-03-02T06:23:18;100374.75;;;-2.18;82.13
59419;BME280;45224;50.904;6.038;2023-03-02T06:24:49;100370.16;;;-2.11;82.46
59419;BME280;45224;50.904;6.038;2023-03-02T06:26:19;100367.81;;;-2.08;82.13
59419;BME280;45224;50.904;6.038;2023-03-02T06:27:50;100366.47;;;-2.16;81.88
59419;BME280;45224;50.904;6.038;2023-03-02T06:29:21;100369.97;;;-2.14;82.38
59419;BME280;45224;50.904;6.038;2023-03-02T06:30:52;100361.97;;;-2.07;81.94
59419;BME280;45224;50.904;6.038;2023-03-02T06:32:23;100377.50;;;-2.00;81.22
59419;BME280;45224;50.904;6.038;2023-03-02T06:33:53;100367.38;;;-2.00;81.25
59419;BME280;45224;50.904;6.038;2023-03-02T06:35:24;100373.00;;;-1.91;80.99
59419;BME280;45224;50.904;6.038;2023-03-02T06:36:55;100380.78;;;-1.88;80.91
59419;BME280;45224;50.904;6.038;2023-03-02T06:38:25;100375.25;;;-1.96;81.67
59419;BME280;45224;50.904;6.038;2023-03-02T06:39:56;100375.16;;;-1.97;81.48
59419;BME280;45224;50.904;6.038;2023-03-02T06:41:27;100379.56;;;-1.80;81.11
59419;BME280;45224;50.904;6.038;2023-03-02T06:42:57;100382.13;;;-1.80;80.62
59419;BME280;45224;50.904;6.038;2023-03-02T06:44:29;100385.88;;;-1.73;80.60
59419;BME280;45224;50.904;6.038;2023-03-02T06:46:00;100377.50;;;-1.72;80.80
59419;BME280;45224;50.904;6.038;2023-03-02T06:47:31;100369.91;;;-1.72;80.42
59419;BME280;45224;50.904;6.038;2023-03-02T06:49:02;100379.31;;;-1.70;80.55
59419;BME280;45224;50.904;6.038;2023-03-02T06:50:33;100379.09;;;-1.59;80.37
59419;BME280;45224;50.904;6.038;2023-03-02T06:52:04;100382.66;;;-1.56;79.67
59419;BME280;45224;50.904;6.038;2023-03-02T06:53:36;100373.56;;;-1.52;79.55
59419;BME280;45224;50.904;6.038;2023-03-02T06:55:07;100386.19;;;-1.39;79.53
59419;BME280;45224;50.904;6.038;2023-03-02T06:56:38;100377.00;;;-1.22;78.71
59419;BME280;45224;50.904;6.038;2023-03-02T06:58:08;100374.91;;;-1.14;77.97
59419;BME280;45224;50.904;6.038;2023-03-02T06:59:42;100370.59;;;-1.15;77.94
59419;BME280;45224;50.904;6.038;2023-03-02T07:01:13;100381.63;;;-1.00;77.69
59419;BME280;45224;50.904;6.038;2023-03-02T07:02:43;100380.75;;;-1.15;77.96
59419;BME280;45224;50.904;6.038;2023-03-02T07:04:14;100383.91;;;-1.19;77.73
59419;BME280;45224;50.904;6.038;2023-03-02T07:05:45;100375.84;;;-1.12;77.85
59419;BME280;45224;50.904;6.038;2023-03-02T07:07:18;100385.88;;;-0.99;78.04
59419;BME280;45224;50.904;6.038;2023-03-02T07:08:48;100382.09;;;-0.90;76.66
59419;BME280;45224;50.904;6.038;2023-03-02T07:10:19;100382.00;;;-0.77;76.42
59419;BME280;45224;50.904;6.038;2023-03-02T07:11:49;100371.38;;;-0.70;75.77
59419;BME280;45224;50.904;6.038;2023-03-02T07:13:20;100371.59;;;-0.50;76.15
59419;BME280;45224;50.904;6.038;2023-03-02T07:14:50;100365.13;;;-0.29;75.75
59419;BME280;45224;50.904;6.038;2023-03-02T07:16:21;100379.88;;;-0.05;74.90
59419;BME280;45224;50.904;6.038;2023-03-02T07:17:51;100375.63;;;0.10;73.83
59419;BME280;45224;50.904;6.038;2023-03-02T07:19:22;100372.09;;;0.25;73.32
59419;BME280;45224;50.904;6.038;2023-03-02T07:20:52;100372.22;;;0.44;72.93
59419;BME280;45224;50.904;6.038;2023-03-02T07:22:23;100371.38;;;0.44;71.26
59419;BME280;45224;50.904;6.038;2023-03-02T07:23:53;100373.75;;;0.75;71.62
59419;BME280;45224;50.904;6.038;2023-03-02T07:25:24;100369.41;;;0.56;70.30
59419;BME280;45224;50.904;6.038;2023-03-02T07:26:55;100365.59;;;0.82;70.51
59419;BME280;45224;50.904;6.038;2023-03-02T07:28:25;100368.38;;;1.05;70.25
59419;BME280;45224;50.904;6.038;2023-03-02T07:29:56;100375.38;;;1.09;69.71
59419;BME280;45224;50.904;6.038;2023-03-02T07:31:27;100369.94;;;1.39;67.94
59419;BME280;45224;50.904;6.038;2023-03-02T07:32:58;100368.91;;;1.53;68.11
59419;BME280;45224;50.904;6.038;2023-03-02T07:34:28;100367.19;;;1.52;65.72
59419;BME280;45224;50.904;6.038;2023-03-02T07:35:59;100373.50;;;1.60;66.02
59419;BME280;45224;50.904;6.038;2023-03-02T07:37:30;100365.53;;;1.72;64.65
59419;BME280;45224;50.904;6.038;2023-03-02T07:39:02;100370.19;;;1.63;63.59
59419;BME280;45224;50.904;6.038;2023-03-02T07:40:33;100367.31;;;1.55;64.61
59419;BME280;45224;50.904;6.038;2023-03-02T07:42:04;100369.47;;;1.66;64.95
59419;BME280;45224;50.904;6.038;2023-03-02T07:43:37;100369.19;;;1.59;64.30
59419;BME280;45224;50.904;6.038;2023-03-02T07:45:09;100368.91;;;1.53;65.10
59419;BME280;45224;50.904;6.038;2023-03-02T07:46:40;100374.56;;;1.66;64.93
59419;BME280;45224;50.904;6.038;2023-03-02T07:48:11;100364.66;;;1.72;64.08
59419;BME280;45224;50.904;6.038;2023-03-02T07:49:41;100369.75;;;1.72;63.71
59419;BME280;45224;50.904;6.038;2023-03-02T07:51:12;100379.66;;;1.66;63.07
59419;BME280;45224;50.904;6.038;2023-03-02T07:52:42;100371.53;;;1.55;64.48
59419;BME280;45224;50.904;6.038;2023-03-02T07:54:13;100367.19;;;1.72;64.81
59419;BME280;45224;50.904;6.038;2023-03-02T07:55:43;100369.06;;;1.76;63.58
59419;BME280;45224;50.904;6.038;2023-03-02T07:57:14;100371.13;;;1.45;64.70
59419;BME280;45224;50.904;6.038;2023-03-02T07:58:46;100376.22;;;1.09;65.71
59419;BME280;45224;50.904;6.038;2023-03-02T08:00:17;100378.28;;;1.17;65.49
59419;BME280;45224;50.904;6.038;2023-03-02T08:01:48;100377.63;;;1.03;66.05
59419;BME280;45224;50.904;6.038;2023-03-02T08:03:18;100378.78;;;0.91;67.14
59419;BME280;45224;50.904;6.038;2023-03-02T08:04:49;100383.94;;;0.75;68.35
59419;BME280;45224;50.904;6.038;2023-03-02T08:06:19;100384.97;;;0.97;67.59
59419;BME280;45224;50.904;6.038;2023-03-02T08:07:50;100386.34;;;1.08;67.35
59419;BME280;45224;50.904;6.038;2023-03-02T08:09:20;100381.06;;;1.21;67.29